createdAt,value
2018-03-01T00:00:05.219Z,43.10
2018-03-01T00:02:36.860Z,43.30
2018-03-01T00:05:08.103Z,43.40
2018-03-01T00:07:39.463Z,43.60
2018-03-01T00:10:10.717Z,43.70
2018-03-01T00:12:42.241Z,43.70
2018-03-01T00:15:13.619Z,43.50
2018-03-01T00:17:44.861Z,43.60
2018-03-01T00:20:16.127Z,43.80
2018-03-01T00:22:47.349Z,43.90
2018-03-01T00:25:18.877Z,43.90
2018-03-01T00:27:50.094Z,43.80
2018-03-01T00:30:21.361Z,43.60
2018-03-01T00:32:52.612Z,43.90
2018-03-01T00:35:23.851Z,44.00
2018-03-01T00:37:55.196Z,43.90
2018-03-01T00:40:26.411Z,43.80
2018-03-01T00:42:57.705Z,44.30
2018-03-01T00:45:29.138Z,44.00
2018-03-01T00:48:00.523Z,44.30
2018-03-01T00:50:32.493Z,43.70
2018-03-01T00:53:03.734Z,43.60
2018-03-01T00:55:35.733Z,43.80
2018-03-01T00:58:07.094Z,43.80
2018-03-01T01:00:38.306Z,44.10
2018-03-01T01:03:09.781Z,44.40
2018-03-01T01:05:40.981Z,44.40
2018-03-01T01:08:12.987Z,44.30
2018-03-01T01:10:44.190Z,44.50
2018-03-01T01:13:15.431Z,44.40
2018-03-01T01:15:46.760Z,44.60
2018-03-01T01:18:18.009Z,44.50
2018-03-01T01:20:49.216Z,44.50
2018-03-01T01:23:20.511Z,44.80
2018-03-01T01:25:51.733Z,44.60
2018-03-01T01:28:22.995Z,44.70
2018-03-01T01:30:54.216Z,45.00
2018-03-01T01:33:25.490Z,45.10
2018-03-01T01:35:56.834Z,44.80
2018-03-01T01:38:28.166Z,45.10
2018-03-01T01:41:00.200Z,45.70
2018-03-01T01:43:31.470Z,45.10
2018-03-01T01:46:02.695Z,44.90
2018-03-01T01:48:33.940Z,44.90
2018-03-01T01:51:05.188Z,45.40
2018-03-01T01:53:36.468Z,44.80
2018-03-01T01:56:07.776Z,44.90
2018-03-01T01:58:38.999Z,45.10
2018-03-01T02:01:10.187Z,45.10
2018-03-01T02:03:41.700Z,45.30
2018-03-01T02:06:12.906Z,45.20
2018-03-01T02:08:45.234Z,45.20
2018-03-01T02:11:16.458Z,45.20
2018-03-01T02:13:47.731Z,45.10
2018-03-01T02:16:19.032Z,45.30
2018-03-01T02:18:50.282Z,45.60
2018-03-01T02:21:21.520Z,46.10
2018-03-01T02:23:53.100Z,46.50
2018-03-01T02:26:24.311Z,46.50
2018-03-01T02:28:55.706Z,46.50
2018-03-01T02:31:26.928Z,47.00
2018-03-01T02:33:58.433Z,46.90
2018-03-01T02:36:32.421Z,47.20
2018-03-01T02:39:04.424Z,47.40
2018-03-01T02:41:35.620Z,47.40
2018-03-01T02:44:07.250Z,47.10
2018-03-01T02:46:38.456Z,47.70
2018-03-01T02:49:09.719Z,47.80
2018-03-01T02:51:41.302Z,48.20
2018-03-01T02:54:12.536Z,48.50
2018-03-01T02:56:43.903Z,48.80
2018-03-01T02:59:15.113Z,48.60
2018-03-01T03:01:46.370Z,48.20
2018-03-01T03:04:17.594Z,48.10
2018-03-01T03:06:48.879Z,48.20
2018-03-01T03:09:20.107Z,48.30
2018-03-01T03:11:51.304Z,48.20
2018-03-01T03:14:22.562Z,48.70
2018-03-01T03:16:53.817Z,48.80
2018-03-01T03:19:25.349Z,49.00
2018-03-01T03:21:56.556Z,48.80
2018-03-01T03:24:27.842Z,49.10
2018-03-01T03:26:59.044Z,49.20
2018-03-01T03:29:30.306Z,49.40
2018-03-01T03:32:02.319Z,49.30
2018-03-01T03:34:33.559Z,49.30
2018-03-01T03:37:04.815Z,49.30
2018-03-01T03:39:36.065Z,49.30
2018-03-01T03:42:07.288Z,49.50
2018-03-01T03:44:38.531Z,49.90
2018-03-01T03:47:09.817Z,50.10
2018-03-01T03:49:41.077Z,50.10
2018-03-01T03:52:12.280Z,50.00
2018-03-01T03:54:43.560Z,50.00
2018-03-01T03:57:14.871Z,49.90
2018-03-01T03:59:46.150Z,50.20
2018-03-01T04:02:25.000Z,50.00
2018-03-01T04:04:56.224Z,50.40
2018-03-01T04:07:27.481Z,50.50
2018-03-01T04:09:59.448Z,50.30
2018-03-01T04:12:30.690Z,50.20
2018-03-01T04:15:02.832Z,50.50
2018-03-01T04:17:34.132Z,50.50
2018-03-01T04:20:05.465Z,50.90
2018-03-01T04:22:36.676Z,51.00
2018-03-01T04:25:07.901Z,51.10
2018-03-01T04:27:39.128Z,51.00
2018-03-01T04:30:10.382Z,51.30
2018-03-01T04:32:41.612Z,51.10
2018-03-01T04:35:13.633Z,51.20
2018-03-01T04:37:45.649Z,51.30
2018-03-01T04:40:16.894Z,51.90
2018-03-01T04:42:48.099Z,51.00
2018-03-01T04:45:19.285Z,50.60
2018-03-01T04:47:50.512Z,50.80
2018-03-01T04:50:21.704Z,51.00
2018-03-01T04:52:52.972Z,51.00
2018-03-01T04:55:24.149Z,50.90
2018-03-01T04:57:55.674Z,50.90
2018-03-01T05:00:26.857Z,51.10
2018-03-01T05:02:58.087Z,51.10
2018-03-01T05:05:29.291Z,51.10
2018-03-01T05:08:00.493Z,51.40
2018-03-01T05:10:31.711Z,51.60
2018-03-01T05:13:02.918Z,51.10
2018-03-01T05:15:34.599Z,51.40
2018-03-01T05:18:06.036Z,51.70
2018-03-01T05:20:37.249Z,51.60
2018-03-01T05:23:08.632Z,51.70
2018-03-01T05:25:39.807Z,51.30
2018-03-01T05:28:11.001Z,51.30
2018-03-01T05:30:42.187Z,51.20
2018-03-01T05:33:13.371Z,51.40
2018-03-01T05:35:45.320Z,51.00
2018-03-01T05:38:17.625Z,51.30
2018-03-01T05:40:49.537Z,51.40
2018-03-01T05:43:21.008Z,51.40
2018-03-01T05:45:52.951Z,51.30
2018-03-01T05:48:24.170Z,51.30
2018-03-01T05:50:56.432Z,51.80
2018-03-01T05:53:27.630Z,51.80
2018-03-01T05:55:58.891Z,51.50
2018-03-01T05:58:31.673Z,51.70
2018-03-01T06:01:02.943Z,51.80
2018-03-01T06:03:34.527Z,52.10
2018-03-01T06:06:05.881Z,51.90
2018-03-01T06:08:37.099Z,52.00
2018-03-01T06:11:08.282Z,52.10
2018-03-01T06:13:40.275Z,51.40
2018-03-01T06:16:11.700Z,51.30
2018-03-01T06:18:44.792Z,51.20
2018-03-01T06:21:16.009Z,51.70
2018-03-01T06:23:48.756Z,51.60
2018-03-01T06:26:19.955Z,51.60
2018-03-01T06:28:51.198Z,52.20
2018-03-01T06:31:22.429Z,52.00
2018-03-01T06:33:53.930Z,52.00
2018-03-01T06:36:25.160Z,51.90
2018-03-01T06:38:56.595Z,52.10
2018-03-01T06:41:27.798Z,52.30
2018-03-01T06:43:59.297Z,51.90
2018-03-01T06:46:30.496Z,52.20
2018-03-01T06:49:01.833Z,52.30
2018-03-01T06:51:33.079Z,51.90
2018-03-01T06:54:05.068Z,51.80
2018-03-01T06:56:37.012Z,51.30
2018-03-01T06:59:08.316Z,51.20
2018-03-01T07:01:39.495Z,51.30
2018-03-01T07:04:10.718Z,51.50
2018-03-01T07:06:41.952Z,51.70
2018-03-01T07:09:13.184Z,51.70
2018-03-01T07:11:44.419Z,50.90
2018-03-01T07:14:15.666Z,50.90
2018-03-01T07:16:46.903Z,50.50
2018-03-01T07:19:18.241Z,50.40
2018-03-01T07:21:49.818Z,50.40
2018-03-01T07:24:21.042Z,49.80
2018-03-01T07:26:52.385Z,49.70
2018-03-01T07:29:24.321Z,49.70
2018-03-01T07:31:55.569Z,49.70
2018-03-01T07:34:26.878Z,49.60
2018-03-01T07:36:58.168Z,49.60
2018-03-01T07:39:29.495Z,49.50
2018-03-01T07:42:00.752Z,49.40
2018-03-01T07:44:31.935Z,49.00
2018-03-01T07:47:03.236Z,48.90
2018-03-01T07:49:35.187Z,48.60
2018-03-01T07:52:06.426Z,48.50
2018-03-01T07:54:37.616Z,48.20
2018-03-01T07:57:08.912Z,47.80
2018-03-01T07:59:40.907Z,47.80
2018-03-01T08:02:12.946Z,47.50
2018-03-01T08:04:44.244Z,47.50
2018-03-01T08:07:15.488Z,47.60
2018-03-01T08:09:46.936Z,47.30
2018-03-01T08:12:19.026Z,46.70
2018-03-01T08:14:50.991Z,45.50
2018-03-01T08:17:22.228Z,45.40
2018-03-01T08:19:53.526Z,45.90
2018-03-01T08:22:24.771Z,45.70
2018-03-01T08:24:56.743Z,45.20
2018-03-01T08:27:28.861Z,45.60
2018-03-01T08:30:00.504Z,45.70
2018-03-01T08:32:31.703Z,45.50
2018-03-01T08:35:03.716Z,44.70
2018-03-01T08:37:34.956Z,44.60
2018-03-01T08:40:06.323Z,45.00
2018-03-01T08:42:37.584Z,43.90
2018-03-01T08:45:09.596Z,43.70
2018-03-01T08:47:40.865Z,43.70
2018-03-01T08:50:12.992Z,43.70
2018-03-01T08:52:44.224Z,43.70
2018-03-01T08:55:15.473Z,43.40
2018-03-01T08:57:46.758Z,42.90
2018-03-01T09:00:18.112Z,42.70
2018-03-01T09:02:49.409Z,42.80
2018-03-01T09:05:20.643Z,42.90
2018-03-01T09:07:51.946Z,41.80
2018-03-01T09:10:23.206Z,41.80
2018-03-01T09:12:54.730Z,42.00
2018-03-01T09:15:27.634Z,43.20
2018-03-01T09:18:00.234Z,43.10
2018-03-01T09:20:32.073Z,42.80
2018-03-01T09:23:07.709Z,42.90
2018-03-01T09:25:42.325Z,43.00
2018-03-01T09:28:15.143Z,43.60
2018-03-01T09:30:46.742Z,42.80
2018-03-01T09:33:17.932Z,42.30
2018-03-01T09:35:49.973Z,42.50
2018-03-01T09:38:21.334Z,41.90
2018-03-01T09:40:52.739Z,41.60
2018-03-01T09:43:23.949Z,41.50
2018-03-01T09:45:55.194Z,42.00
2018-03-01T09:48:26.430Z,42.00
2018-03-01T09:50:58.592Z,41.60
2018-03-01T09:53:30.069Z,41.60
2018-03-01T09:56:01.331Z,41.10
2018-03-01T09:58:32.692Z,41.20
2018-03-01T10:01:04.019Z,41.50
2018-03-01T10:03:35.463Z,41.00
2018-03-01T10:06:06.666Z,41.20
2018-03-01T10:08:37.914Z,40.70
2018-03-01T10:11:09.916Z,41.20
2018-03-01T10:13:41.219Z,40.40
2018-03-01T10:16:12.448Z,40.50
2018-03-01T10:18:45.530Z,40.50
2018-03-01T10:21:18.650Z,40.10
2018-03-01T10:23:50.611Z,40.10
2018-03-01T10:26:22.854Z,39.80
2018-03-01T10:28:54.941Z,40.80
2018-03-01T10:31:26.877Z,40.40
2018-03-01T10:33:59.079Z,39.90
2018-03-01T10:36:33.597Z,40.20
2018-03-01T10:39:04.961Z,39.70
2018-03-01T10:41:36.290Z,39.60
2018-03-01T10:44:08.280Z,38.80
2018-03-01T10:46:39.566Z,38.80
2018-03-01T10:49:11.104Z,38.90
2018-03-01T10:51:42.338Z,40.80
2018-03-01T10:54:13.618Z,38.70
2018-03-01T10:56:44.968Z,37.60
2018-03-01T10:59:17.060Z,37.90
2018-03-01T11:01:51.941Z,38.40
2018-03-01T11:04:23.284Z,38.50
2018-03-01T11:06:54.541Z,38.30
2018-03-01T11:09:25.830Z,38.70
2018-03-01T11:11:57.049Z,39.00
2018-03-01T11:14:28.768Z,38.50
2018-03-01T11:17:00.326Z,38.00
2018-03-01T11:19:31.664Z,37.80
2018-03-01T11:22:03.240Z,37.70
2018-03-01T11:24:34.461Z,38.20
2018-03-01T11:27:05.731Z,37.90
2018-03-01T11:29:36.948Z,37.90
2018-03-01T11:32:08.317Z,38.30
2018-03-01T11:34:39.522Z,38.50
2018-03-01T11:37:10.768Z,38.40
2018-03-01T11:39:42.020Z,38.20
2018-03-01T11:42:13.253Z,38.10
2018-03-01T11:44:44.522Z,37.90
2018-03-01T11:47:15.772Z,37.80
2018-03-01T11:49:47.318Z,38.00
2018-03-01T11:52:18.565Z,37.60
2018-03-01T11:54:49.772Z,37.50
2018-03-01T11:57:21.093Z,36.60
2018-03-01T11:59:53.418Z,36.70
2018-03-01T12:02:24.892Z,36.70
2018-03-01T12:04:56.187Z,37.00
2018-03-01T12:07:27.397Z,36.90
2018-03-01T12:09:59.394Z,36.70
2018-03-01T12:12:30.678Z,36.50
2018-03-01T12:15:03.421Z,36.50
2018-03-01T12:17:34.669Z,36.50
2018-03-01T12:20:05.899Z,36.50
2018-03-01T12:22:37.288Z,36.30
2018-03-01T12:25:08.475Z,36.30
2018-03-01T12:27:39.748Z,35.80
2018-03-01T12:30:11.028Z,35.90
2018-03-01T12:32:42.268Z,35.60
2018-03-01T12:35:13.488Z,35.30
2018-03-01T12:37:44.861Z,35.20
2018-03-01T12:40:16.075Z,34.80
2018-03-01T12:42:47.398Z,35.10
2018-03-01T12:45:18.640Z,35.20
2018-03-01T12:47:49.911Z,35.20
2018-03-01T12:50:21.135Z,35.70
2018-03-01T12:52:52.376Z,35.90
2018-03-01T12:55:24.374Z,35.60
2018-03-01T12:57:55.761Z,35.50
2018-03-01T13:00:27.061Z,35.70
2018-03-01T13:02:58.627Z,35.60
2018-03-01T13:05:29.810Z,35.30
2018-03-01T13:08:01.623Z,35.70
2018-03-01T13:10:34.790Z,36.10
2018-03-01T13:13:06.619Z,36.20
2018-03-01T13:15:38.640Z,35.90
2018-03-01T13:18:09.944Z,35.60
2018-03-01T13:20:41.161Z,35.20
2018-03-01T13:23:12.771Z,35.30
2018-03-01T13:25:43.971Z,35.50
2018-03-01T13:28:15.945Z,38.00
2018-03-01T13:30:47.177Z,38.00
2018-03-01T13:33:19.380Z,36.20
2018-03-01T13:35:53.494Z,35.60
2018-03-01T13:38:24.735Z,35.50
2018-03-01T13:40:55.951Z,35.40
2018-03-01T13:43:29.296Z,35.10
2018-03-01T13:46:00.583Z,34.60
2018-03-01T13:48:32.643Z,35.00
2018-03-01T13:51:04.653Z,34.90
2018-03-01T13:53:35.864Z,34.80
2018-03-01T13:56:07.168Z,34.80
2018-03-01T13:58:38.376Z,35.00
2018-03-01T14:01:09.643Z,35.10
2018-03-01T14:03:40.930Z,34.80
2018-03-01T14:06:14.821Z,34.70
2018-03-01T14:08:46.084Z,34.70
2018-03-01T14:11:18.160Z,34.40
2018-03-01T14:13:49.468Z,34.40
2018-03-01T14:16:20.648Z,34.40
2018-03-01T14:19:03.437Z,35.30
2018-03-01T14:21:40.900Z,35.30
2018-03-01T14:24:13.951Z,35.10
2018-03-01T14:26:49.228Z,35.00
2018-03-01T14:29:26.848Z,34.50
2018-03-01T14:31:58.088Z,34.60
2018-03-01T14:34:29.358Z,34.70
2018-03-01T14:37:00.615Z,35.00
2018-03-01T14:39:31.828Z,35.20
2018-03-01T14:42:03.150Z,35.20
2018-03-01T14:44:34.359Z,34.90
2018-03-01T14:47:05.609Z,34.90
2018-03-01T14:49:36.874Z,35.20
2018-03-01T14:52:08.912Z,35.40
2018-03-01T14:54:40.126Z,35.30
2018-03-01T14:57:12.085Z,35.20
2018-03-01T14:59:44.019Z,35.40
2018-03-01T15:02:15.444Z,35.30
2018-03-01T15:04:47.278Z,35.60
2018-03-01T15:07:19.188Z,35.10
2018-03-01T15:09:50.440Z,35.10
2018-03-01T15:12:21.705Z,35.30
2018-03-01T15:14:53.056Z,35.60
2018-03-01T15:17:25.076Z,36.00
2018-03-01T15:19:56.335Z,36.00
2018-03-01T15:22:28.297Z,36.30
2018-03-01T15:25:00.607Z,36.30
2018-03-01T15:27:31.915Z,35.20
2018-03-01T15:30:03.137Z,35.70
2018-03-01T15:32:34.417Z,35.40
2018-03-01T15:35:06.382Z,36.20
2018-03-01T15:37:38.413Z,35.60
2018-03-01T15:40:09.655Z,35.60
2018-03-01T15:42:40.864Z,35.30
2018-03-01T15:45:12.991Z,35.30
2018-03-01T15:47:45.031Z,35.60
2018-03-01T15:50:16.321Z,35.60
2018-03-01T15:52:47.554Z,35.80
2018-03-01T15:55:18.790Z,36.60
2018-03-01T15:57:50.788Z,37.10
2018-03-01T16:00:22.115Z,36.70
2018-03-01T16:02:53.429Z,36.60
2018-03-01T16:05:25.386Z,36.40
2018-03-01T16:07:56.741Z,36.60
2018-03-01T16:10:27.990Z,36.40
2018-03-01T16:12:59.313Z,36.40
2018-03-01T16:15:30.560Z,36.00
2018-03-01T16:18:01.817Z,36.20
2018-03-01T16:20:33.029Z,36.90
2018-03-01T16:23:04.216Z,36.90
2018-03-01T16:25:36.286Z,36.90
2018-03-01T16:28:08.228Z,36.90
2018-03-01T16:30:39.540Z,36.90
2018-03-01T16:33:10.731Z,37.10
2018-03-01T16:35:42.889Z,37.20
2018-03-01T16:38:14.227Z,37.20
2018-03-01T16:40:45.420Z,37.90
2018-03-01T16:43:16.641Z,37.60
2018-03-01T16:45:48.825Z,37.40
2018-03-01T16:48:20.047Z,37.30
2018-03-01T16:50:51.625Z,37.50
2018-03-01T16:53:22.849Z,37.90
2018-03-01T16:55:54.815Z,38.00
2018-03-01T16:58:26.044Z,37.60
2018-03-01T17:00:57.289Z,37.60
2018-03-01T17:03:28.612Z,37.50
2018-03-01T17:05:59.934Z,37.50
2018-03-01T17:08:31.255Z,37.50
2018-03-01T17:11:02.501Z,37.60
2018-03-01T17:13:33.733Z,37.90
2018-03-01T17:16:04.973Z,38.00
2018-03-01T17:18:36.284Z,40.50
2018-03-01T17:21:07.528Z,38.20
2018-03-01T17:23:38.783Z,38.00
2018-03-01T17:26:10.381Z,37.80
2018-03-01T17:28:41.579Z,37.50
2018-03-01T17:31:12.821Z,37.90
2018-03-01T17:33:44.072Z,38.60
2018-03-01T17:36:15.311Z,38.80
2018-03-01T17:38:46.499Z,38.80
2018-03-01T17:41:17.834Z,38.90
2018-03-01T17:43:49.767Z,38.80
2018-03-01T17:46:21.113Z,38.80
2018-03-01T17:48:52.331Z,38.70
2018-03-01T17:51:23.751Z,38.80
2018-03-01T17:53:54.957Z,39.00
2018-03-01T17:56:26.242Z,39.40
2018-03-01T17:58:57.480Z,39.30
2018-03-01T18:01:28.713Z,39.10
2018-03-01T18:03:59.943Z,39.00
2018-03-01T18:06:31.976Z,39.10
2018-03-01T18:09:03.491Z,39.60
2018-03-01T18:11:34.699Z,39.30
2018-03-01T18:14:06.014Z,39.20
2018-03-01T18:16:37.223Z,39.40
2018-03-01T18:19:08.598Z,39.40
2018-03-01T18:21:39.839Z,39.20
2018-03-01T18:24:11.108Z,39.50
2018-03-01T18:26:43.160Z,39.70
2018-03-01T18:29:14.404Z,39.70
2018-03-01T18:31:45.631Z,39.60
2018-03-01T18:34:16.903Z,42.10
2018-03-01T18:36:48.121Z,42.60
2018-03-01T18:39:19.352Z,38.80
2018-03-01T18:41:50.570Z,38.80
2018-03-01T18:44:22.548Z,39.60
2018-03-01T18:46:53.818Z,39.60
2018-03-01T18:49:25.086Z,39.70
2018-03-01T18:51:56.281Z,39.60
2018-03-01T18:54:28.244Z,40.00
2018-03-01T18:56:59.719Z,39.90
2018-03-01T18:59:30.923Z,40.20
2018-03-01T19:02:02.862Z,40.30
2018-03-01T19:04:34.084Z,40.10
2018-03-01T19:07:05.424Z,40.60
2018-03-01T19:09:36.655Z,40.60
2018-03-01T19:12:07.910Z,40.40
2018-03-01T19:14:39.130Z,40.50
2018-03-01T19:17:10.388Z,40.70
2018-03-01T19:19:41.580Z,40.60
2018-03-01T19:22:13.539Z,40.30
2018-03-01T19:24:45.459Z,40.20
2018-03-01T19:27:16.993Z,40.30
2018-03-01T19:29:48.172Z,40.80
2018-03-01T19:32:19.419Z,41.30
2018-03-01T19:34:50.633Z,41.00
2018-03-01T19:37:22.171Z,41.20
2018-03-01T19:39:53.420Z,41.50
2018-03-01T19:42:24.703Z,41.30
2018-03-01T19:44:55.907Z,41.20
2018-03-01T19:47:27.210Z,40.90
2018-03-01T19:49:59.640Z,41.20
2018-03-01T19:52:30.878Z,41.20
2018-03-01T19:55:02.092Z,41.30
2018-03-01T19:57:33.577Z,41.10
2018-03-01T20:00:04.810Z,41.30
2018-03-01T20:02:36.028Z,41.20
2018-03-01T20:05:07.220Z,41.40
2018-03-01T20:07:38.448Z,42.20
2018-03-01T20:10:09.630Z,41.90
2018-03-01T20:12:41.141Z,41.90
2018-03-01T20:15:12.316Z,42.00
2018-03-01T20:17:43.545Z,41.80
2018-03-01T20:20:14.729Z,41.70
2018-03-01T20:22:45.965Z,41.90
2018-03-01T20:25:17.884Z,41.70
2018-03-01T20:27:49.594Z,41.70
2018-03-01T20:30:21.086Z,42.20
2018-03-01T20:32:52.682Z,42.30
2018-03-01T20:35:23.960Z,42.50
2018-03-01T20:37:55.174Z,42.30
2018-03-01T20:40:26.785Z,42.30
2018-03-01T20:42:58.207Z,42.40
2018-03-01T20:45:29.427Z,42.30
2018-03-01T20:48:00.724Z,42.50
2018-03-01T20:50:32.035Z,42.80
2018-03-01T20:53:03.392Z,42.80
2018-03-01T20:55:34.590Z,42.90
2018-03-01T20:58:06.084Z,43.10
2018-03-01T21:00:37.338Z,43.20
2018-03-01T21:03:08.559Z,42.80
2018-03-01T21:05:39.851Z,42.40
2018-03-01T21:08:11.141Z,42.60
2018-03-01T21:10:43.280Z,42.70
2018-03-01T21:13:14.551Z,42.70
2018-03-01T21:15:45.774Z,42.50
2018-03-01T21:18:17.060Z,42.80
2018-03-01T21:20:48.287Z,42.50
2018-03-01T21:23:20.232Z,43.20
2018-03-01T21:25:51.415Z,43.20
2018-03-01T21:28:22.696Z,43.40
2018-03-01T21:30:54.220Z,43.20
2018-03-01T21:33:25.411Z,43.10
2018-03-01T21:35:56.648Z,43.80
2018-03-01T21:38:27.884Z,43.30
2018-03-01T21:40:59.091Z,43.00
2018-03-01T21:43:30.321Z,42.90
2018-03-01T21:46:01.522Z,43.10
2018-03-01T21:48:32.837Z,43.00
2018-03-01T21:51:04.013Z,43.20
2018-03-01T21:53:35.250Z,43.30
2018-03-01T21:56:06.448Z,43.20
2018-03-01T21:58:37.706Z,43.40
2018-03-01T22:01:09.009Z,43.10
2018-03-01T22:03:40.981Z,43.30
2018-03-01T22:06:12.200Z,43.30
2018-03-01T22:08:43.517Z,43.70
2018-03-01T22:11:14.708Z,43.20
2018-03-01T22:13:46.692Z,43.20
2018-03-01T22:16:17.935Z,43.20
2018-03-01T22:18:49.151Z,43.20
2018-03-01T22:21:21.060Z,43.50
2018-03-01T22:23:52.303Z,43.60
2018-03-01T22:26:23.502Z,44.00
2018-03-01T22:28:55.941Z,43.80
2018-03-01T22:31:27.143Z,43.80
2018-03-01T22:33:58.352Z,43.70
2018-03-01T22:36:30.451Z,44.00
2018-03-01T22:39:01.803Z,43.80
2018-03-01T22:41:33.788Z,43.60
2018-03-01T22:44:04.960Z,43.60
2018-03-01T22:46:37.306Z,43.60
2018-03-01T22:49:08.531Z,43.50
2018-03-01T22:51:39.740Z,43.80
2018-03-01T22:54:11.705Z,43.90
2018-03-01T22:56:43.715Z,44.50
2018-03-01T22:59:15.043Z,43.90
2018-03-01T23:01:46.490Z,43.80
2018-03-01T23:04:17.646Z,44.00
2018-03-01T23:06:49.187Z,44.40
2018-03-01T23:09:20.428Z,44.20
2018-03-01T23:11:51.611Z,43.80
2018-03-01T23:14:22.833Z,44.40
2018-03-01T23:16:54.051Z,44.30
2018-03-01T23:19:25.242Z,43.80
2018-03-01T23:21:56.464Z,44.10
2018-03-01T23:24:27.643Z,44.60
2018-03-01T23:26:58.876Z,44.70
2018-03-01T23:29:30.132Z,44.60
2018-03-01T23:32:01.368Z,44.40
2018-03-01T23:34:32.596Z,44.80
2018-03-01T23:37:03.780Z,45.10
2018-03-01T23:39:35.021Z,44.80
2018-03-01T23:42:07.015Z,44.80
2018-03-01T23:44:38.219Z,44.80
2018-03-01T23:47:09.426Z,44.70
2018-03-01T23:49:40.679Z,45.00
2018-03-01T23:52:11.887Z,45.30
2018-03-01T23:54:43.107Z,45.00
2018-03-01T23:57:14.333Z,45.00
2018-03-01T23:59:46.283Z,45.10
